sensor_id;sensor_type;location;lat;lon;timestamp;pressure;altitude;pressure_sealevel;temperature;humidity
30110;BME280;14965;50.660;13.226;2023-03-08T00:01:30;93122.28;;;-0.81;100.00
30110;BME280;14965;50.660;13.226;2023-03-08T00:04:23;93119.97;;;-0.79;100.00
30110;BME280;14965;50.660;13.226;2023-03-08T00:07:00;93125.38;;;-0.79;100.00
30110;BME280;14965;50.660;13.226;2023-03-08T00:09:44;93121.94;;;-0.83;100.00
30110;BME280;14965;50.660;13.226;2023-03-08T00:16:15;93128.28;;;-0.93;100.00
30110;BME280;14965;50.660;13.226;2023-03-08T00:19:01;93130.22;;;-0.93;100.00
30110;BME280;14965;50.660;13.226;2023-03-08T00:21:41;93140.59;;;-0.88;100.00
30110;BME280;14965;50.660;13.226;2023-03-08T00:31:36;93135.50;;;-0.83;100.00
30110;BME280;14965;50.660;13.226;2023-03-08T00:34:12;93139.31;;;-0.80;100.00
30110;BME280;14965;50.660;13.226;2023-03-08T00:36:54;93136.72;;;-0.87;100.00
30110;BME280;14965;50.660;13.226;2023-03-08T00:39:42;93136.34;;;-0.89;100.00
30110;BME280;14965;50.660;13.226;2023-03-08T00:42:32;93140.97;;;-0.86;100.00
30110;BME280;14965;50.660;13.226;2023-03-08T00:45:01;93132.41;;;-0.85;100.00
30110;BME280;14965;50.660;13.226;2023-03-08T00:47:49;93124.75;;;-0.90;100.00
30110;BME280;14965;50.660;13.226;2023-03-08T00:50:58;93133.31;;;-0.91;100.00
30110;BME280;14965;50.660;13.226;2023-03-08T00:53:55;93131.34;;;-0.91;100.00
30110;BME280;14965;50.660;13.226;2023-03-08T00:56:27;93138.69;;;-0.88;100.00
30110;BME280;14965;50.660;13.226;2023-03-08T00:59:08;93140.56;;;-0.85;100.00
30110;BME280;14965;50.660;13.226;2023-03-08T01:01:39;93146.38;;;-0.86;100.00
30110;BME280;14965;50.660;13.226;2023-03-08T01:04:42;93149.50;;;-0.88;100.00
30110;BME280;14965;50.660;13.226;2023-03-08T01:07:16;93145.66;;;-0.90;100.00
30110;BME280;14965;50.660;13.226;2023-03-08T01:09:45;93148.38;;;-0.90;100.00
30110;BME280;14965;50.660;13.226;2023-03-08T01:12:36;93139.78;;;-0.85;100.00
30110;BME280;14965;50.660;13.226;2023-03-08T01:15:19;93143.22;;;-0.81;100.00
30110;BME280;14965;50.660;13.226;2023-03-08T01:18:06;93157.19;;;-0.83;100.00
30110;BME280;14965;50.660;13.226;2023-03-08T01:20:45;93147.88;;;-0.82;100.00
30110;BME280;14965;50.660;13.226;2023-03-08T01:23:31;93159.44;;;-0.78;100.00
30110;BME280;14965;50.660;13.226;2023-03-08T01:26:02;93148.16;;;-0.76;100.00
30110;BME280;14965;50.660;13.226;2023-03-08T01:28:32;93140.03;;;-0.76;100.00
30110;BME280;14965;50.660;13.226;2023-03-08T01:31:02;93141.53;;;-0.71;100.00
30110;BME280;14965;50.660;13.226;2023-03-08T01:33:29;93145.78;;;-0.70;100.00
30110;BME280;14965;50.660;13.226;2023-03-08T01:36:02;93145.78;;;-0.70;100.00
30110;BME280;14965;50.660;13.226;2023-03-08T01:38:31;93156.63;;;-0.70;100.00
30110;BME280;14965;50.660;13.226;2023-03-08T01:41:06;93153.16;;;-0.71;100.00
30110;BME280;14965;50.660;13.226;2023-03-08T01:43:36;93146.13;;;-0.68;100.00
30110;BME280;14965;50.660;13.226;2023-03-08T01:46:35;93146.91;;;-0.68;100.00
30110;BME280;14965;50.660;13.226;2023-03-08T01:49:13;93148.84;;;-0.68;100.00
30110;BME280;14965;50.660;13.226;2023-03-08T01:51:54;93154.69;;;-0.70;100.00
30110;BME280;14965;50.660;13.226;2023-03-08T01:54:26;93145.06;;;-0.74;100.00
30110;BME280;14965;50.660;13.226;2023-03-08T01:56:58;93158.63;;;-0.74;100.00
30110;BME280;14965;50.660;13.226;2023-03-08T01:59:26;93133.94;;;-0.84;100.00
30110;BME280;14965;50.660;13.226;2023-03-08T02:02:05;93133.94;;;-0.84;100.00
30110;BME280;14965;50.660;13.226;2023-03-08T02:04:34;93144.03;;;-0.84;100.00
30110;BME280;14965;50.660;13.226;2023-03-08T02:07:03;93133.19;;;-0.84;100.00
30110;BME280;14965;50.660;13.226;2023-03-08T02:09:29;93135.50;;;-0.83;100.00
30110;BME280;14965;50.660;13.226;2023-03-08T02:12:00;93147.88;;;-0.82;100.00
30110;BME280;14965;50.660;13.226;2023-03-08T02:14:28;93154.06;;;-0.81;100.00
30110;BME280;14965;50.660;13.226;2023-03-08T02:16:55;93154.81;;;-0.81;100.00
30110;BME280;14965;50.660;13.226;2023-03-08T02:19:32;93156.75;;;-0.81;100.00
30110;BME280;14965;50.660;13.226;2023-03-08T02:22:08;93144.75;;;-0.80;100.00
30110;BME280;14965;50.660;13.226;2023-03-08T02:24:36;93136.97;;;-0.78;100.00
30110;BME280;14965;50.660;13.226;2023-03-08T02:27:06;93138.09;;;-0.76;100.00
30110;BME280;14965;50.660;13.226;2023-03-08T02:29:34;93143.88;;;-0.73;100.00
30110;BME280;14965;50.660;13.226;2023-03-08T02:32:02;93139.22;;;-0.73;100.00
30110;BME280;14965;50.660;13.226;2023-03-08T02:34:31;93147.31;;;-0.69;100.00
30110;BME280;14965;50.660;13.226;2023-03-08T02:37:00;93148.09;;;-0.69;100.00
30110;BME280;14965;50.660;13.226;2023-03-08T02:39:31;93147.31;;;-0.69;100.00
30110;BME280;14965;50.660;13.226;2023-03-08T02:42:02;93149.63;;;-0.68;100.00
30110;BME280;14965;50.660;13.226;2023-03-08T02:44:34;93145.31;;;-0.65;100.00
30110;BME280;14965;50.660;13.226;2023-03-08T02:47:04;93146.84;;;-0.64;100.00
30110;BME280;14965;50.660;13.226;2023-03-08T02:49:33;93144.50;;;-0.62;100.00
30110;BME280;14965;50.660;13.226;2023-03-08T02:52:02;93153.00;;;-0.60;100.00
30110;BME280;14965;50.660;13.226;2023-03-08T02:54:31;93141.72;;;-0.59;100.00
30110;BME280;14965;50.660;13.226;2023-03-08T02:56:58;93147.94;;;-0.58;100.00
30110;BME280;14965;50.660;13.226;2023-03-08T02:59:26;93153.00;;;-0.60;100.00
30110;BME280;14965;50.660;13.226;2023-03-08T03:01:54;93151.50;;;-0.65;100.00
30110;BME280;14965;50.660;13.226;2023-03-08T03:04:26;93151.50;;;-0.65;100.00
30110;BME280;14965;50.660;13.226;2023-03-08T03:06:59;93152.28;;;-0.64;100.00
30110;BME280;14965;50.660;13.226;2023-03-08T03:09:27;93149.94;;;-0.62;100.00
30110;BME280;14965;50.660;13.226;2023-03-08T03:11:59;93155.38;;;-0.62;100.00
30110;BME280;14965;50.660;13.226;2023-03-08T03:14:36;93152.22;;;-0.61;100.00
30110;BME280;14965;50.660;13.226;2023-03-08T03:17:13;93150.69;;;-0.62;100.00
30110;BME280;14965;50.660;13.226;2023-03-08T03:19:59;93151.81;;;-0.59;100.00
30110;BME280;14965;50.660;13.226;2023-03-08T03:22:39;93159.19;;;-0.60;100.00
30110;BME280;14965;50.660;13.226;2023-03-08T03:25:10;93154.19;;;-0.61;100.00
30110;BME280;14965;50.660;13.226;2023-03-08T03:27:48;93153.00;;;-0.60;100.00
30110;BME280;14965;50.660;13.226;2023-03-08T03:30:21;93157.22;;;-0.59;100.00
30110;BME280;14965;50.660;13.226;2023-03-08T03:32:50;93161.84;;;-0.56;100.00
30110;BME280;14965;50.660;13.226;2023-03-08T03:35:22;93149.44;;;-0.54;100.00
30110;BME280;14965;50.660;13.226;2023-03-08T03:37:52;93155.19;;;-0.52;100.00
30110;BME280;14965;50.660;13.226;2023-03-08T03:44:02;93168.78;;;-0.55;100.00
30110;BME280;14965;50.660;13.226;2023-03-08T03:46:49;93165.31;;;-0.56;100.00
30110;BME280;14965;50.660;13.226;2023-03-08T03:50:04;93167.69;;;-0.58;100.00
30110;BME280;14965;50.660;13.226;2023-03-08T03:53:39;93167.31;;;-0.60;100.00
30110;BME280;14965;50.660;13.226;2023-03-08T03:56:33;93165.41;;;-0.63;100.00
30110;BME280;14965;50.660;13.226;2023-03-08T03:59:30;93178.56;;;-0.61;100.00
30110;BME280;14965;50.660;13.226;2023-03-08T04:02:40;93175.09;;;-0.62;100.00
30110;BME280;14965;50.660;13.226;2023-03-08T04:27:43;93161.94;;;-0.63;100.00
30110;BME280;14965;50.660;13.226;2023-03-08T04:30:11;93159.22;;;-0.63;100.00
30110;BME280;14965;50.660;13.226;2023-03-08T04:32:38;93161.22;;;-0.67;100.00
30110;BME280;14965;50.660;13.226;2023-03-08T04:35:15;93166.63;;;-0.67;100.00
30110;BME280;14965;50.660;13.226;2023-03-08T04:37:41;93174.38;;;-0.66;100.00
30110;BME280;14965;50.660;13.226;2023-03-08T04:40:09;93174.00;;;-0.68;100.00
30110;BME280;14965;50.660;13.226;2023-03-08T04:42:35;93162.81;;;-0.70;100.00
30110;BME280;14965;50.660;13.226;2023-03-08T04:45:03;93153.91;;;-0.70;100.00
30110;BME280;14965;50.660;13.226;2023-03-08T04:47:29;93165.19;;;-0.76;100.00
30110;BME280;14965;50.660;13.226;2023-03-08T04:49:55;93159.44;;;-0.78;100.00
30110;BME280;14965;50.660;13.226;2023-03-08T04:52:21;93159.44;;;-0.78;100.00
30110;BME280;14965;50.660;13.226;2023-03-08T04:54:47;93163.31;;;-0.79;100.00
30110;BME280;14965;50.660;13.226;2023-03-08T04:57:13;93159.44;;;-0.78;100.00
30110;BME280;14965;50.660;13.226;2023-03-08T04:59:39;93157.91;;;-0.79;100.00
30110;BME280;14965;50.660;13.226;2023-03-08T05:02:06;93164.84;;;-0.78;100.00
30110;BME280;14965;50.660;13.226;2023-03-08T05:04:32;93161.34;;;-0.74;100.00
30110;BME280;14965;50.660;13.226;2023-03-08T05:06:58;93173.34;;;-0.76;100.00
30110;BME280;14965;50.660;13.226;2023-03-08T05:09:24;93166.00;;;-0.75;100.00
30110;BME280;14965;50.660;13.226;2023-03-08T05:11:50;93168.69;;;-0.75;100.00
30110;BME280;14965;50.660;13.226;2023-03-08T05:14:16;93169.84;;;-0.76;100.00
30110;BME280;14965;50.660;13.226;2023-03-08T05:16:42;93166.34;;;-0.73;100.00
30110;BME280;14965;50.660;13.226;2023-03-08T05:19:09;93182.25;;;-0.75;100.00
30110;BME280;14965;50.660;13.226;2023-03-08T05:21:35;93182.25;;;-0.75;100.00
30110;BME280;14965;50.660;13.226;2023-03-08T05:24:01;93172.19;;;-0.74;100.00
30110;BME280;14965;50.660;13.226;2023-03-08T05:26:27;93173.28;;;-0.72;100.00
30110;BME280;14965;50.660;13.226;2023-03-08T05:28:53;93173.25;;;-0.68;100.00
30110;BME280;14965;50.660;13.226;2023-03-08T05:31:21;93176.34;;;-0.66;100.00
30110;BME280;14965;50.660;13.226;2023-03-08T05:33:49;93172.44;;;-0.65;100.00
30110;BME280;14965;50.660;13.226;2023-03-08T05:36:17;93168.91;;;-0.62;100.00
30110;BME280;14965;50.660;13.226;2023-03-08T05:38:44;93175.44;;;-0.60;100.00
30110;BME280;14965;50.660;13.226;2023-03-08T05:41:13;93161.13;;;-0.60;100.00
30110;BME280;14965;50.660;13.226;2023-03-08T05:43:39;93168.53;;;-0.64;100.00
30110;BME280;14965;50.660;13.226;2023-03-08T05:46:09;93163.50;;;-0.62;100.00
30110;BME280;14965;50.660;13.226;2023-03-08T05:48:36;93156.47;;;-0.60;100.00
30110;BME280;14965;50.660;13.226;2023-03-08T05:51:04;93160.66;;;-0.55;100.00
30110;BME280;14965;50.660;13.226;2023-03-08T05:53:32;93159.84;;;-0.52;100.00
30110;BME280;14965;50.660;13.226;2023-03-08T05:56:07;93159.81;;;-0.48;100.00
30110;BME280;14965;50.660;13.226;2023-03-08T05:58:34;93161.69;;;-0.45;100.00
30110;BME280;14965;50.660;13.226;2023-03-08T06:01:07;93164.00;;;-0.44;100.00
30110;BME280;14965;50.660;13.226;2023-03-08T06:03:33;93173.31;;;-0.45;100.00
30110;BME280;14965;50.660;13.226;2023-03-08T06:05:59;93175.25;;;-0.45;100.00
30110;BME280;14965;50.660;13.226;2023-03-08T06:08:25;93172.56;;;-0.45;100.00
30110;BME280;14965;50.660;13.226;2023-03-08T06:10:52;93176.03;;;-0.45;100.00
30110;BME280;14965;50.660;13.226;2023-03-08T06:13:18;93173.66;;;-0.43;100.00
30110;BME280;14965;50.660;13.226;2023-03-08T06:15:44;93184.88;;;-0.41;100.00
30110;BME280;14965;50.660;13.226;2023-03-08T06:18:10;93173.97;;;-0.37;100.00
30110;BME280;14965;50.660;13.226;2023-03-08T06:20:36;93177.00;;;-0.32;100.00
30110;BME280;14965;50.660;13.226;2023-03-08T06:23:02;93180.75;;;-0.26;100.00
30110;BME280;14965;50.660;13.226;2023-03-08T06:25:27;93174.91;;;-0.20;100.00
30110;BME280;14965;50.660;13.226;2023-03-08T06:27:55;93160.09;;;-0.16;100.00
30110;BME280;14965;50.660;13.226;2023-03-08T06:30:21;93170.09;;;-0.13;100.00
30110;BME280;14965;50.660;13.226;2023-03-08T06:32:47;93168.53;;;-0.10;100.00
30110;BME280;14965;50.660;13.226;2023-03-08T06:35:13;93170.00;;;-0.06;100.00
30110;BME280;14965;50.660;13.226;2023-03-08T06:37:38;93170.72;;;-0.02;100.00
30110;BME280;14965;50.660;13.226;2023-03-08T06:40:06;93162.56;;;-0.02;100.00
30110;BME280;14965;50.660;13.226;2023-03-08T06:42:32;93167.94;;;0.02;100.00
30110;BME280;14965;50.660;13.226;2023-03-08T06:44:59;93172.88;;;0.07;100.00
30110;BME280;14965;50.660;13.226;2023-03-08T06:47:25;93165.47;;;0.11;100.00
30110;BME280;14965;50.660;13.226;2023-03-08T06:49:51;93174.31;;;0.15;100.00
30110;BME280;14965;50.660;13.226;2023-03-08T06:52:17;93169.59;;;0.19;100.00
30110;BME280;14965;50.660;13.226;2023-03-08T06:54:43;93173.78;;;0.24;100.00
30110;BME280;14965;50.660;13.226;2023-03-08T06:57:09;93173.28;;;0.29;100.00
30110;BME280;14965;50.660;13.226;2023-03-08T06:59:34;93182.50;;;0.35;100.00
30110;BME280;14965;50.660;13.226;2023-03-08T07:02:02;93185.50;;;0.41;100.00
30110;BME280;14965;50.660;13.226;2023-03-08T07:04:28;93178.44;;;0.47;100.00
30110;BME280;14965;50.660;13.226;2023-03-08T07:06:53;93179.91;;;0.52;99.87
30110;BME280;14965;50.660;13.226;2023-03-08T07:09:19;93182.91;;;0.57;99.15
30110;BME280;14965;50.660;13.226;2023-03-08T07:11:46;93176.97;;;0.62;99.29
30110;BME280;14965;50.660;13.226;2023-03-08T07:14:12;93180.00;;;0.68;99.03
30110;BME280;14965;50.660;13.226;2023-03-08T07:16:37;93176.78;;;0.73;98.63
30110;BME280;14965;50.660;13.226;2023-03-08T07:19:05;93179.84;;;0.75;97.73
30110;BME280;14965;50.660;13.226;2023-03-08T07:21:31;93171.56;;;0.82;98.03
30110;BME280;14965;50.660;13.226;2023-03-08T07:23:56;93179.16;;;0.91;97.38
30110;BME280;14965;50.660;13.226;2023-03-08T07:26:22;93180.16;;;1.01;97.44
30110;BME280;14965;50.660;13.226;2023-03-08T07:28:49;93177.28;;;1.08;96.52
30110;BME280;14965;50.660;13.226;2023-03-08T07:31:15;93177.56;;;1.13;96.28
30110;BME280;14965;50.660;13.226;2023-03-08T07:33:41;93169.69;;;1.19;95.79
30110;BME280;14965;50.660;13.226;2023-03-08T07:36:08;93165.28;;;1.25;95.39
30110;BME280;14965;50.660;13.226;2023-03-08T07:38:34;93168.28;;;1.31;95.16
30110;BME280;14965;50.660;13.226;2023-03-08T07:41:00;93168.53;;;1.36;94.72
30110;BME280;14965;50.660;13.226;2023-03-08T07:43:26;93171.53;;;1.42;94.10
30110;BME280;14965;50.660;13.226;2023-03-08T07:45:52;93166.69;;;1.49;93.81
30110;BME280;14965;50.660;13.226;2023-03-08T07:48:18;93170.03;;;1.57;93.51
30110;BME280;14965;50.660;13.226;2023-03-08T07:50:44;93164.53;;;1.61;92.64
30110;BME280;14965;50.660;13.226;2023-03-08T07:53:11;93174.22;;;1.62;92.57
30110;BME280;14965;50.660;13.226;2023-03-08T07:55:37;93164.00;;;1.66;91.84
30110;BME280;14965;50.660;13.226;2023-03-08T07:58:06;93162.81;;;1.67;90.84
30110;BME280;14965;50.660;13.226;2023-03-08T08:00:32;93159.94;;;1.74;90.92
30110;BME280;14965;50.660;13.226;2023-03-08T08:02:58;93158.16;;;1.84;91.07
30110;BME280;14965;50.660;13.226;2023-03-08T08:05:24;93151.03;;;1.90;90.65
30110;BME280;14965;50.660;13.226;2023-03-08T08:07:51;93152.91;;;1.93;89.92
30110;BME280;14965;50.660;13.226;2023-03-08T08:10:19;93146.94;;;1.98;89.77
30110;BME280;14965;50.660;13.226;2023-03-08T08:12:45;93151.13;;;2.03;89.66
30110;BME280;14965;50.660;13.226;2023-03-08T08:15:11;93147.09;;;2.07;89.45
30110;BME280;14965;50.660;13.226;2023-03-08T08:17:37;93151.63;;;2.14;90.10
30110;BME280;14965;50.660;13.226;2023-03-08T08:20:04;93149.47;;;2.21;89.70
30110;BME280;14965;50.660;13.226;2023-03-08T08:22:33;93147.25;;;2.33;89.32
30110;BME280;14965;50.660;13.226;2023-03-08T08:24:58;93150.63;;;2.53;89.12
30110;BME280;14965;50.660;13.226;2023-03-08T08:27:26;93140.91;;;2.68;88.42
30110;BME280;14965;50.660;13.226;2023-03-08T08:29:52;93141.72;;;2.82;87.60
30110;BME280;14965;50.660;13.226;2023-03-08T08:32:18;93144.00;;;2.83;86.80
30110;BME280;14965;50.660;13.226;2023-03-08T08:34:44;93135.19;;;2.92;86.95
30110;BME280;14965;50.660;13.226;2023-03-08T08:37:10;93128.06;;;3.11;86.83
30110;BME280;14965;50.660;13.226;2023-03-08T08:39:36;93135.16;;;3.21;85.64
30110;BME280;14965;50.660;13.226;2023-03-08T08:42:02;93131.91;;;3.26;85.88
30110;BME280;14965;50.660;13.226;2023-03-08T08:44:30;93126.66;;;3.32;85.98
30110;BME280;14965;50.660;13.226;2023-03-08T08:46:56;93123.41;;;3.37;85.66
30110;BME280;14965;50.660;13.226;2023-03-08T08:49:24;93111.06;;;3.32;84.73
30110;BME280;14965;50.660;13.226;2023-03-08T08:51:50;93115.00;;;3.31;84.18
30110;BME280;14965;50.660;13.226;2023-03-08T08:54:16;93114.66;;;3.29;82.93
30110;BME280;14965;50.660;13.226;2023-03-08T08:56:42;93114.97;;;3.18;83.92
30110;BME280;14965;50.660;13.226;2023-03-08T08:59:10;93104.94;;;3.15;84.28
30110;BME280;14965;50.660;13.226;2023-03-08T09:01:38;93101.34;;;3.18;84.69
30110;BME280;14965;50.660;13.226;2023-03-08T09:04:04;93091.28;;;3.15;85.06
30110;BME280;14965;50.660;13.226;2023-03-08T09:06:30;93087.69;;;3.18;84.95
30110;BME280;14965;50.660;13.226;2023-03-08T09:08:57;93079.41;;;3.22;84.22
30110;BME280;14965;50.660;13.226;2023-03-08T09:11:26;93070.69;;;3.27;84.73
30110;BME280;14965;50.660;13.226;2023-03-08T09:13:52;93073.53;;;3.36;84.90
30110;BME280;14965;50.660;13.226;2023-03-08T09:16:22;93066.00;;;3.40;84.57
30110;BME280;14965;50.660;13.226;2023-03-08T09:18:50;93068.94;;;3.46;83.86
30110;BME280;14965;50.660;13.226;2023-03-08T09:54:44;93038.81;;;3.24;85.20
30110;BME280;14965;50.660;13.226;2023-03-08T09:57:17;93027.56;;;3.09;85.34
30110;BME280;14965;50.660;13.226;2023-03-08T09:59:53;93028.56;;;3.03;85.45
30110;BME280;14965;50.660;13.226;2023-03-08T10:02:33;93018.50;;;2.99;86.04
30110;BME280;14965;50.660;13.226;2023-03-08T10:05:06;93010.09;;;2.94;86.26
30110;BME280;14965;50.660;13.226;2023-03-08T10:07:49;93013.69;;;2.91;86.65
30110;BME280;14965;50.660;13.226;2023-03-08T10:10:40;93017.38;;;2.84;86.59
30110;BME280;14965;50.660;13.226;2023-03-08T10:13:33;93021.31;;;2.83;87.66
30110;BME280;14965;50.660;13.226;2023-03-08T10:16:16;93009.22;;;2.84;87.05
30110;BME280;14965;50.660;13.226;2023-03-08T10:18:50;93013.91;;;2.84;87.54
30110;BME280;14965;50.660;13.226;2023-03-08T10:21:21;93005.50;;;2.78;87.62
30110;BME280;14965;50.660;13.226;2023-03-08T10:23:59;93002.97;;;2.71;87.33
30110;BME280;14965;50.660;13.226;2023-03-08T10:26:28;93005.59;;;2.62;87.90
30110;BME280;14965;50.660;13.226;2023-03-08T10:28:54;93013.63;;;2.53;88.42
30110;BME280;14965;50.660;13.226;2023-03-08T10:31:26;93006.88;;;2.57;88.29
30110;BME280;14965;50.660;13.226;2023-03-08T10:34:03;93004.06;;;2.61;89.28
30110;BME280;14965;50.660;13.226;2023-03-08T10:36:47;93001.78;;;2.59;89.17
30110;BME280;14965;50.660;13.226;2023-03-08T10:39:13;93004.28;;;2.66;89.46
30110;BME280;14965;50.660;13.226;2023-03-08T10:41:45;92996.22;;;2.75;88.41
30110;BME280;14965;50.660;13.226;2023-03-08T10:44:14;92992.97;;;2.81;87.69
30110;BME280;14965;50.660;13.226;2023-03-08T10:46:49;92998.75;;;2.83;87.10
30110;BME280;14965;50.660;13.226;2023-03-08T10:49:18;92995.91;;;2.86;87.19
30110;BME280;14965;50.660;13.226;2023-03-08T10:51:53;92984.34;;;2.82;86.52
30110;BME280;14965;50.660;13.226;2023-03-08T10:54:19;92983.78;;;2.74;86.46
30110;BME280;14965;50.660;13.226;2023-03-08T10:56:54;92982.81;;;2.68;87.39
30110;BME280;14965;50.660;13.226;2023-03-08T10:59:24;92978.13;;;2.69;88.08
30110;BME280;14965;50.660;13.226;2023-03-08T11:01:54;92975.16;;;2.63;87.18
30110;BME280;14965;50.660;13.226;2023-03-08T11:04:23;92962.75;;;2.62;87.22
30110;BME280;14965;50.660;13.226;2023-03-08T11:06:49;92955.78;;;2.61;87.81
30110;BME280;14965;50.660;13.226;2023-03-08T11:09:22;92951.53;;;2.60;87.81
30110;BME280;14965;50.660;13.226;2023-03-08T11:11:51;92953.91;;;2.58;87.72
30110;BME280;14965;50.660;13.226;2023-03-08T11:14:17;92946.38;;;2.62;88.18
30110;BME280;14965;50.660;13.226;2023-03-08T11:17:13;92944.31;;;2.66;88.11
30110;BME280;14965;50.660;13.226;2023-03-08T11:20:03;92937.00;;;2.63;87.70
30110;BME280;14965;50.660;13.226;2023-03-08T11:22:49;92930.59;;;2.57;87.82
30110;BME280;14965;50.660;13.226;2023-03-08T11:25:31;92924.00;;;2.42;87.24
30110;BME280;14965;50.660;13.226;2023-03-08T11:28:28;92909.06;;;2.34;87.83
30110;BME280;14965;50.660;13.226;2023-03-08T11:31:11;92908.75;;;2.32;87.95
30110;BME280;14965;50.660;13.226;2023-03-08T11:34:22;92900.25;;;2.30;88.17
30110;BME280;14965;50.660;13.226;2023-03-08T11:37:01;92897.88;;;2.32;88.16
30110;BME280;14965;50.660;13.226;2023-03-08T11:39:32;92890.91;;;2.31;87.53
30110;BME280;14965;50.660;13.226;2023-03-08T11:42:14;92877.59;;;2.33;87.95
30110;BME280;14965;50.660;13.226;2023-03-08T11:45:02;92872.03;;;2.36;88.34
30110;BME280;14965;50.660;13.226;2023-03-08T11:48:06;92866.03;;;2.41;87.95
30110;BME280;14965;50.660;13.226;2023-03-08T11:50:39;92860.59;;;2.41;88.24
30110;BME280;14965;50.660;13.226;2023-03-08T11:53:19;92856.81;;;2.39;87.17
30110;BME280;14965;50.660;13.226;2023-03-08T11:56:29;92848.72;;;2.48;88.37
30110;BME280;14965;50.660;13.226;2023-03-08T11:59:04;92856.25;;;2.57;88.23
30110;BME280;14965;50.660;13.226;2023-03-08T12:01:40;92844.03;;;2.61;87.46
30110;BME280;14965;50.660;13.226;2023-03-08T12:04:16;92848.94;;;2.66;87.84
30110;BME280;14965;50.660;13.226;2023-03-08T12:06:45;92842.41;;;2.64;87.46
30110;BME280;14965;50.660;13.226;2023-03-08T12:09:20;92837.06;;;2.60;87.46
30110;BME280;14965;50.660;13.226;2023-03-08T12:11:52;92841.41;;;2.58;87.30
30110;BME280;14965;50.660;13.226;2023-03-08T12:14:23;92830.63;;;2.67;88.00
30110;BME280;14965;50.660;13.226;2023-03-08T12:17:02;92841.09;;;2.81;87.66
30110;BME280;14965;50.660;13.226;2023-03-08T12:19:38;92834.09;;;2.93;86.91
30110;BME280;14965;50.660;13.226;2023-03-08T12:22:22;92829.16;;;3.00;86.19
30110;BME280;14965;50.660;13.226;2023-03-08T12:24:59;92828.94;;;2.95;85.68
30110;BME280;14965;50.660;13.226;2023-03-08T12:27:35;92830.72;;;2.89;86.48
30110;BME280;14965;50.660;13.226;2023-03-08T12:30:16;92819.94;;;2.85;86.72
30110;BME280;14965;50.660;13.226;2023-03-08T12:32:47;92826.25;;;2.82;86.78
30110;BME280;14965;50.660;13.226;2023-03-08T12:35:29;92815.91;;;2.77;87.03
30110;BME280;14965;50.660;13.226;2023-03-08T12:37:58;92807.28;;;2.79;87.29
30110;BME280;14965;50.660;13.226;2023-03-08T12:40:38;92808.78;;;2.80;87.92
30110;BME280;14965;50.660;13.226;2023-03-08T12:43:09;92811.84;;;2.82;87.87
30110;BME280;14965;50.660;13.226;2023-03-08T12:45:37;92794.84;;;2.78;86.76
30110;BME280;14965;50.660;13.226;2023-03-08T12:48:21;92800.50;;;2.83;87.20
30110;BME280;14965;50.660;13.226;2023-03-08T12:51:01;92803.19;;;2.96;87.42
30110;BME280;14965;50.660;13.226;2023-03-08T12:53:38;92797.22;;;3.01;86.70
30110;BME280;14965;50.660;13.226;2023-03-08T12:56:28;92797.63;;;2.99;85.59
30110;BME280;14965;50.660;13.226;2023-03-08T12:58:56;92798.66;;;2.93;85.14
30110;BME280;14965;50.660;13.226;2023-03-08T13:01:31;92799.84;;;2.92;85.05
30110;BME280;14965;50.660;13.226;2023-03-08T13:04:00;92803.31;;;2.92;85.63
30110;BME280;14965;50.660;13.226;2023-03-08T13:07:02;92795.59;;;2.91;86.29
30110;BME280;14965;50.660;13.226;2023-03-08T13:09:41;92779.47;;;2.84;86.01
30110;BME280;14965;50.660;13.226;2023-03-08T13:12:24;92776.41;;;2.82;86.32
30110;BME280;14965;50.660;13.226;2023-03-08T13:15:17;92763.66;;;2.79;86.57
30110;BME280;14965;50.660;13.226;2023-03-08T13:17:58;92755.81;;;2.81;86.30
30110;BME280;14965;50.660;13.226;2023-03-08T13:20:46;92750.13;;;2.88;85.88
30110;BME280;14965;50.660;13.226;2023-03-08T13:23:26;92748.16;;;2.88;86.34
30110;BME280;14965;50.660;13.226;2023-03-08T13:26:12;92748.81;;;2.80;84.15
30110;BME280;14965;50.660;13.226;2023-03-08T13:28:43;92753.59;;;2.88;85.16
30110;BME280;14965;50.660;13.226;2023-03-08T13:34:42;92755.34;;;3.17;84.39
30110;BME280;14965;50.660;13.226;2023-03-08T13:37:22;92743.69;;;3.16;83.89
30110;BME280;14965;50.660;13.226;2023-03-08T13:39:51;92734.28;;;3.17;84.08
30110;BME280;14965;50.660;13.226;2023-03-08T13:42:18;92738.13;;;3.20;84.87
30110;BME280;14965;50.660;13.226;2023-03-08T13:44:43;92736.47;;;3.22;85.50
30110;BME280;14965;50.660;13.226;2023-03-08T13:47:21;92737.81;;;3.18;85.18
30110;BME280;14965;50.660;13.226;2023-03-08T13:49:50;92726.84;;;2.96;84.80
30110;BME280;14965;50.660;13.226;2023-03-08T13:52:21;92722.22;;;2.84;84.31
30110;BME280;14965;50.660;13.226;2023-03-08T13:54:52;92718.84;;;2.80;85.56
30110;BME280;14965;50.660;13.226;2023-03-08T13:57:22;92715.94;;;2.74;85.32
30110;BME280;14965;50.660;13.226;2023-03-08T13:59:53;92716.50;;;2.69;86.40
30110;BME280;14965;50.660;13.226;2023-03-08T14:02:23;92702.53;;;2.67;86.13
30110;BME280;14965;50.660;13.226;2023-03-08T14:04:50;92697.69;;;2.84;86.77
30110;BME280;14965;50.660;13.226;2023-03-08T14:07:22;92683.13;;;2.99;86.29
30110;BME280;14965;50.660;13.226;2023-03-08T14:09:49;92689.59;;;3.15;86.20
30110;BME280;14965;50.660;13.226;2023-03-08T14:12:19;92702.19;;;2.99;84.50
30110;BME280;14965;50.660;13.226;2023-03-08T14:14:50;92695.53;;;2.79;85.06
30110;BME280;14965;50.660;13.226;2023-03-08T14:17:20;92697.84;;;2.67;85.21
30110;BME280;14965;50.660;13.226;2023-03-08T14:19:53;92695.25;;;2.64;86.78
30110;BME280;14965;50.660;13.226;2023-03-08T14:22:23;92694.81;;;2.65;87.23
30110;BME280;14965;50.660;13.226;2023-03-08T14:24:53;92686.94;;;2.67;86.93
30110;BME280;14965;50.660;13.226;2023-03-08T14:27:39;92690.31;;;2.71;87.52
30110;BME280;14965;50.660;13.226;2023-03-08T14:30:13;92698.63;;;2.68;87.11
30110;BME280;14965;50.660;13.226;2023-03-08T14:32:39;92700.72;;;2.64;87.78
30110;BME280;14965;50.660;13.226;2023-03-08T14:35:16;92691.56;;;2.58;88.66